createdAt,value
2023-05-20T00:05:32.572Z,1024.06
2023-05-20T00:20:32.781Z,1024.01
2023-05-20T00:35:33.210Z,1024.05
2023-05-20T00:50:34.041Z,1024.12
2023-05-20T01:05:34.576Z,1023.97
2023-05-20T01:20:35.577Z,1023.95
2023-05-20T01:35:35.990Z,1023.83
2023-05-20T01:50:36.981Z,1023.75
2023-05-20T02:05:37.535Z,1023.71
2023-05-20T02:20:38.418Z,1023.78
2023-05-20T02:35:38.752Z,1023.79
2023-05-20T02:50:38.939Z,1023.81
2023-05-20T03:05:39.683Z,1023.74
2023-05-20T03:20:40.332Z,1023.89
2023-05-20T03:35:40.546Z,1023.93
2023-05-20T03:50:40.706Z,1023.99
2023-05-20T04:05:40.752Z,1024.05
2023-05-20T04:20:40.994Z,1024.12
2023-05-20T04:35:41.318Z,1024.10
2023-05-20T04:50:41.597Z,1024.13
2023-05-20T05:05:41.633Z,1024.06
2023-05-20T05:20:42.026Z,1023.90
2023-05-20T05:35:42.116Z,1023.92
2023-05-20T05:50:43.317Z,1023.88
2023-05-20T06:05:43.881Z,1023.86
2023-05-20T06:20:44.179Z,1023.76
2023-05-20T06:35:44.898Z,1023.76
2023-05-20T06:50:45.019Z,1023.66
2023-05-20T07:05:45.322Z,1023.67
2023-05-20T07:20:45.694Z,1023.54
2023-05-20T07:35:45.435Z,1023.75
2023-05-20T07:50:45.948Z,1023.66
2023-05-20T08:05:46.077Z,1023.54
2023-05-20T08:20:46.172Z,1023.35
2023-05-20T08:35:46.280Z,1023.28
2023-05-20T08:50:46.504Z,1023.23
2023-05-20T09:05:46.670Z,1023.24
2023-05-20T09:20:47.107Z,1023.02
2023-05-20T09:35:47.448Z,1023.12
2023-05-20T09:50:47.643Z,1022.95
2023-05-20T10:05:47.845Z,1023.03
2023-05-20T10:20:47.878Z,1022.96
2023-05-20T10:35:48.191Z,1022.78
2023-05-20T10:50:48.411Z,1022.71
2023-05-20T11:05:48.702Z,1022.48
2023-05-20T11:20:50.007Z,1022.42
2023-05-20T11:35:50.475Z,1022.39
2023-05-20T11:50:50.615Z,1022.34
2023-05-20T12:05:50.550Z,1022.04
2023-05-20T12:20:51.109Z,1021.92
2023-05-20T12:35:50.974Z,1021.68
2023-05-20T12:50:51.404Z,1021.44
2023-05-20T13:05:51.583Z,1021.36
2023-05-20T13:20:51.789Z,1021.05
2023-05-20T13:35:51.921Z,1020.93
2023-05-20T13:50:52.203Z,1020.74
2023-05-20T14:05:52.416Z,1020.62
2023-05-20T14:20:52.531Z,1020.45
2023-05-20T14:35:52.634Z,1020.50
2023-05-20T14:50:52.851Z,1020.36
2023-05-20T15:05:53.183Z,1020.26
2023-05-20T15:20:53.441Z,1020.05
2023-05-20T15:35:53.625Z,1020.00
2023-05-20T15:50:54.007Z,1019.87
2023-05-20T16:05:55.053Z,1019.74
2023-05-20T16:20:55.258Z,1019.54
2023-05-20T16:35:55.447Z,1019.30
2023-05-20T16:50:55.670Z,1019.21
2023-05-20T17:05:55.961Z,1019.32
2023-05-20T17:20:56.143Z,1019.06
2023-05-20T17:35:56.357Z,1019.00
2023-05-20T17:50:56.369Z,1018.85
2023-05-20T18:05:56.618Z,1018.87
2023-05-20T18:20:56.870Z,1018.94
2023-05-20T18:35:57.095Z,1018.80
2023-05-20T18:50:57.276Z,1018.85
2023-05-20T19:06:01.301Z,1018.84
2023-05-20T19:21:01.323Z,1018.94
2023-05-20T19:36:01.470Z,1018.83
2023-05-20T19:51:01.650Z,1019.12
2023-05-20T20:06:02.520Z,1019.18
2023-05-20T20:21:02.609Z,1019.12
2023-05-20T20:36:02.784Z,1019.04
2023-05-20T20:51:03.272Z,1019.04
2023-05-20T21:06:03.848Z,1019.08
2023-05-20T21:21:03.993Z,1018.83
2023-05-20T21:36:04.453Z,1018.63
2023-05-20T21:51:04.572Z,1018.58
2023-05-20T22:06:04.773Z,1018.49
2023-05-20T22:21:05.266Z,1018.45
2023-05-20T22:36:05.377Z,1018.39
2023-05-20T22:51:05.605Z,1018.26
2023-05-20T23:06:05.809Z,1017.99
2023-05-20T23:21:07.161Z,1017.99
2023-05-20T23:36:07.278Z,1017.91
2023-05-20T23:51:07.545Z,1017.90
